AirNav   TITAN Aviation Fuels
 
 374 users online  

08LA Air Oil Inc Nr 2 Heliport
Harahan, Louisiana, USA

GOING TO HARAHAN?


FAA INFORMATION EFFECTIVE 08 SEPTEMBER 2022

Location

FAA Identifier: 08LA
Lat/Long: 29-57-10.7350N 090-10-57.2700W
29-57.178917N 090-10.954500W
29.9529819,-90.1825750
(estimated)
Elevation: 4 ft. / 1 m (estimated)
Variation: 03E (1985)
Time zone: UTC -5 (UTC -6 during Standard Time)
Zip code: 70123

Heliport Operations

Heliport use: Private use. Permission required prior to landing
Control tower: no
ARTCC: HOUSTON CENTER
FSS: DE RIDDER FLIGHT SERVICE STATION
Attendance: SR-SS
Wind indicator: no
Segmented circle: no

Heliport Communications

WX ASOS at MSY (5 nm NW): PHONE (504)471-4486
WX ASOS at NEW (10 nm NE): PHONE 504-245-4366

Nearby radio navigation aids

VOR radial/distance  VOR name  Freq  Var
HRVr301/11.2HARVEY VORTAC114.1002E
RQRr109/22.6RESERVE VOR/DME110.8002E
TBDr061/37.9TIBBY VOR/DME112.0002E

Heliport Services

Runway Information

Helipad H1

Dimensions: 30 x 15 ft. / 9 x 5 m
HELIPAD LOCATED WITHIN A 2 ACRE AREA.
Surface: turf
Latitude: 29-57.179000N
Longitude: 090-10.954500W
Elevation: 4.0 ft.
Traffic pattern: leftleft

Heliport Ownership and Management from official FAA records

Ownership: Privately-owned
Owner: AIR OIL INC.
5802 RIVER ROAD
HARAHAN, LA 70123
Manager: DAVE BLOODWORTH
PO BOX 23060
HARAHAN, LA 70183
Phone 504-733-9780

Heliport Operational Statistics

Aircraft based on the field: 3
Single engine airplanes: 3
    

Additional Remarks

FOR CD CTC NEW ORLEANS APCH AT 504-471-4350.

Instrument Procedures

There are no published instrument procedures at 08LA.

Some nearby airports with instrument procedures:

KMSY - Louis Armstrong New Orleans International Airport (5 nm NW)
KNEW - Lakefront Airport (10 nm NE)
KNBG - New Orleans Naval Air Station Joint Reserve Base - Alvin Callender Field (11 nm SE)
KAPS - Port of South Louisiana Executive Regional Airport (22 nm W)
KASD - Slidell Airport (30 nm NE)
 
Loc | Ops | Rwys | IFR | FBO | Links
Com | Nav | Svcs | Stats | Notes
Area around 08LA (Air Oil Inc Nr 2 Heliport)
 
Road maps at: MapQuest Bing Google
 
Aerial photo
No photo
 
Sectional chart

 
Airport distance calculator
Flying to Air Oil Inc Nr 2 Heliport? Find the distance to fly.

From to 08LA

Sunrise and sunset
Times for 02-Oct-2022
 Local
(UTC-5)
 Zulu
(UTC)
Morning civil twilight06:3211:32
Sunrise06:5611:56
Sunset18:4523:45
Evening civil twilight19:0800:08

Current date and time
Zulu (UTC)  02-Oct-2022 09:29:26
Local (UTC-5)  02-Oct-2022 04:29:26
 
METAR
KMSY 
4nm NW 
020853Z 00000KT 10SM CLR 16/13 A3002 RMK AO2 SLP167 T01560128 58001
K7N0 
5nm E 
020856Z AUTO 01003KT 10SM CLR 20/13 A3003 RMK AO2 SLP167 6//// T02000128 58001 PNO $
KNEW 
10nm NE 
020853Z AUTO 03011KT 10SM CLR 21/13 A3002 RMK AO2 SLP159 T02110128 58001
KNBG 
12nm SE 
012155Z 34008KT 10SM CLR 28/09 A2994 RMK AO2 SLP136 T02780089 $
TAF
KMSY 
4nm NW 
020521Z 0206/0312 VRB04KT P6SM SKC FM021500 01008KT P6SM FEW250 FM030200 36005KT P6SM FEW250
KNEW 
10nm NE 
020521Z 0206/0306 02012KT P6SM SKC FM021500 02008KT P6SM SKC FM021900 34006KT P6SM SKC FM030100 01015KT P6SM FEW250
KNBG 
12nm SE 
0207/0307 01008KT 9999 SKC QNH3003INS BECMG 0215/0217 VRB05KT 9999 SKC QNH3008INS T16/0212Z T26/0221Z FN00253
NOTAMs
Click for the latest NOTAMs
NOTAMs are issued by the DoD/FAA and will open in a separate window not controlled by AirNav.

 

 
 

Would you like to see your business listed on this page?

 If your business provides an interesting product or service to pilots, flight crews, aircraft, or users of the Air Oil Inc Nr 2 Heliport, you should consider listing it here.  To start the listing process, click on the button below
 
Add a business
 

Other Pages about Air Oil Inc Nr 2 Heliport

Update a link
 
Copyright © AirNav, LLC. All rights reserved. Privacy Policy  Contact